Forside
METAR-TAF:

METAR-TAF

Lufthavne :

Albert Lea, Minnesota, USA

Breddekreds: 43-41N, længdekreds: 093-22W, højde: 383 m

Aktuelle vejr

Denne rapport blev lavet for 34 minutter siden, kl. 03:35 UTC
Vind 14 kt fra sydsydøst med vindstød på up til 19 kt
Temperatur -4°C
Fugtighed 100%
Tryk 1013 hPa
Sigt: 4.0 km
Overskyet i en højde af 800 ft
dis

METAR: KAEL 180335Z AUTO 15014G19KT 2 1/2SM BR OVC008 M04/M04 A2992 RMK AO2

Tid: 22:09 (04:09 UTC)


TAF: fraværende

Vejrobservationer og prognoser fra mere end 4000 lufthavne (METAR og TAF).

De gule og røde prikker repræsenterer de meteorologiske stationer.

Flyt musen over at se navnet på stationen.

Så klik over at se vejr observationer og prognoser.

At skifte det kort: Klik på de grønne knapper med et sort kors for at zoome ind; på den grønne knap med en bindestreg for at zoome ud; eller på de grønne pile for tilstødende kort.


METAR-TAF: